Time;durP1;ratioP1;P1;durP2;ratioP2;P2;SDS_P1;SDS_P2;PMS_P1;PMS_P2;Temp;Humidity;BMP_temperature;BMP_pressure;BME280_temperature;BME280_humidity;BME280_pressure;Samples;Min_cycle;Max_cycle;Signal;HPM_P1;HPM_P2
2021/11/28 00:00:33;;;;;;;19.03;12.73;;;2.70;99.90;;;;;;5071285;28;20455;-76
2021/11/28 00:03:02;;;;;;;19.27;13.33;;;2.80;99.90;;;;;;5071327;28;20047;-76
2021/11/28 00:05:29;;;;;;;18.10;12.77;;;2.80;99.90;;;;;;5071056;28;20118;-75
2021/11/28 00:08:14;;;;;;;26.13;15.00;;;2.80;99.90;;;;;;5071246;28;20044;-75
2021/11/28 00:10:50;;;;;;;22.50;14.20;;;2.90;99.90;;;;;;5071303;28;20485;-74
2021/11/28 00:13:33;;;;;;;19.13;12.77;;;2.80;99.90;;;;;;5071258;28;20081;-75
2021/11/28 00:16:01;;;;;;;19.50;14.33;;;2.90;99.90;;;;;;5071486;28;20515;-75
2021/11/28 00:18:28;;;;;;;23.03;14.27;;;2.90;99.90;;;;;;5071512;28;20044;-78
2021/11/28 00:20:56;;;;;;;25.67;14.13;;;2.90;99.90;;;;;;5071481;28;20459;-76
2021/11/28 00:23:23;;;;;;;20.17;13.93;;;2.90;99.90;;;;;;5070737;28;20084;-77
2021/11/28 00:25:51;;;;;;;20.17;11.50;;;2.80;99.90;;;;;;5071479;28;20049;-77
2021/11/28 00:28:18;;;;;;;23.83;14.30;;;2.70;99.90;;;;;;5071208;28;20045;-75
2021/11/28 00:30:45;;;;;;;22.27;13.07;;;2.70;99.90;;;;;;5070866;28;20048;-76
2021/11/28 00:33:12;;;;;;;23.90;14.63;;;2.70;99.90;;;;;;5070951;28;20480;-74
2021/11/28 00:35:39;;;;;;;23.57;14.80;;;2.70;99.90;;;;;;5071139;28;20143;-76
2021/11/28 00:38:06;;;;;;;19.60;12.30;;;2.70;99.90;;;;;;5071347;28;20565;-76
2021/11/28 00:40:34;;;;;;;20.67;13.83;;;2.70;99.90;;;;;;5071038;28;20489;-75
2021/11/28 00:43:02;;;;;;;22.87;13.57;;;2.70;99.90;;;;;;5071056;28;20075;-76
2021/11/28 00:45:29;;;;;;;19.80;14.00;;;2.60;99.90;;;;;;5074120;28;20094;-76
2021/11/28 00:47:56;;;;;;;17.47;12.57;;;2.60;99.90;;;;;;5075004;28;20094;-76
2021/11/28 00:50:37;;;;;;;21.00;13.23;;;2.50;99.90;;;;;;5074607;28;20064;-78
2021/11/28 00:53:04;;;;;;;20.13;12.67;;;2.50;99.90;;;;;;5074815;28;20051;-76
2021/11/28 00:55:31;;;;;;;23.73;14.60;;;2.60;99.90;;;;;;5074064;28;20472;-74
2021/11/28 00:57:58;;;;;;;26.93;12.30;;;2.50;99.90;;;;;;5074568;28;20098;-72
2021/11/28 01:00:26;;;;;;;20.60;11.07;;;2.60;99.90;;;;;;5074501;28;20075;-74
2021/11/28 01:02:53;;;;;;;19.20;12.23;;;2.50;99.90;;;;;;5074202;28;20129;-75
2021/11/28 01:05:20;;;;;;;19.33;14.37;;;2.50;99.90;;;;;;5073882;28;20078;-74
2021/11/28 01:07:47;;;;;;;19.13;11.20;;;2.40;99.90;;;;;;5074336;28;20539;-74
2021/11/28 01:10:14;;;;;;;18.83;10.80;;;2.30;99.90;;;;;;5074284;28;20072;-74
2021/11/28 01:12:42;;;;;;;19.17;11.83;;;2.20;99.90;;;;;;5074141;28;20135;-76
2021/11/28 01:15:11;;;;;;;24.40;12.73;;;2.20;99.90;;;;;;5073871;28;20132;-73
2021/11/28 01:17:40;;;;;;;17.03;12.07;;;2.20;99.90;;;;;;5074118;28;20106;-74
2021/11/28 01:20:09;;;;;;;22.80;13.77;;;2.10;99.90;;;;;;5074064;28;20068;-74
2021/11/28 01:22:35;;;;;;;24.50;14.57;;;1.90;99.90;;;;;;5074048;28;20102;-79
2021/11/28 01:25:03;;;;;;;22.23;13.93;;;1.80;99.90;;;;;;5073588;28;20048;-76
2021/11/28 01:27:30;;;;;;;19.60;11.97;;;1.80;99.90;;;;;;5074180;28;20044;-76
2021/11/28 01:29:57;;;;;;;18.00;12.60;;;1.70;99.90;;;;;;5074112;28;20048;-76
2021/11/28 01:32:24;;;;;;;21.13;11.73;;;1.70;99.90;;;;;;5074158;28;20156;-77
2021/11/28 01:34:52;;;;;;;18.73;11.30;;;1.60;99.90;;;;;;5073423;28;20048;-77
2021/11/28 01:37:19;;;;;;;14.40;11.23;;;1.60;99.90;;;;;;5074007;28;20193;-77
2021/11/28 01:39:47;;;;;;;17.70;11.23;;;1.60;99.90;;;;;;5076019;28;20072;-76
2021/11/28 01:42:14;;;;;;;15.47;12.13;;;1.60;99.90;;;;;;5078972;28;20053;-76
2021/11/28 01:44:41;;;;;;;17.13;11.23;;;1.60;99.90;;;;;;5078946;28;20355;-74
2021/11/28 01:47:08;;;;;;;18.37;12.10;;;1.70;99.90;;;;;;5079547;28;20131;-76
2021/11/28 01:49:35;;;;;;;21.60;11.57;;;1.70;99.90;;;;;;5080426;28;20086;-75
2021/11/28 01:52:04;;;;;;;18.23;11.03;;;1.80;99.90;;;;;;5076865;28;20044;-76
2021/11/28 01:54:31;;;;;;;18.97;11.73;;;1.80;99.90;;;;;;5079357;28;20110;-75
2021/11/28 01:56:58;;;;;;;18.73;11.77;;;1.80;99.90;;;;;;5083062;28;20193;-75
2021/11/28 01:59:25;;;;;;;17.97;10.50;;;1.90;99.90;;;;;;5082423;28;20098;-78
2021/11/28 02:01:52;;;;;;;20.10;11.30;;;1.90;99.90;;;;;;5084126;28;20049;-76
2021/11/28 02:04:20;;;;;;;17.97;12.30;;;1.90;99.90;;;;;;5077822;28;20045;-78
2021/11/28 02:06:48;;;;;;;17.53;11.93;;;1.90;99.90;;;;;;5073321;28;20086;-75
2021/11/28 02:09:17;;;;;;;18.83;14.13;;;2.00;99.90;;;;;;5073360;28;20048;-75
2021/11/28 02:11:45;;;;;;;17.47;11.83;;;2.10;99.90;;;;;;5073123;28;20139;-77
2021/11/28 02:14:12;;;;;;;16.63;11.90;;;2.10;99.90;;;;;;5072594;28;20049;-77
2021/11/28 02:16:39;;;;;;;22.83;11.53;;;2.10;99.90;;;;;;5073156;28;20508;-75
2021/11/28 02:19:06;;;;;;;17.70;12.43;;;2.20;99.90;;;;;;5072876;28;20080;-73
2021/11/28 02:21:34;;;;;;;19.23;12.20;;;2.30;99.90;;;;;;5073163;28;20078;-74
2021/11/28 02:24:01;;;;;;;19.40;12.93;;;2.40;99.90;;;;;;5072842;28;20105;-75
2021/11/28 02:26:30;;;;;;;20.83;13.03;;;2.40;99.90;;;;;;5073055;28;20079;-74
2021/11/28 02:28:58;;;;;;;23.77;14.23;;;2.50;99.90;;;;;;5072869;28;20447;-75
2021/11/28 02:31:24;;;;;;;19.77;12.87;;;2.50;99.90;;;;;;5072651;28;20052;-74
2021/11/28 02:33:52;;;;;;;22.23;12.83;;;2.60;99.90;;;;;;5072737;28;20155;-74
2021/11/28 02:36:18;;;;;;;19.17;11.57;;;2.60;99.90;;;;;;5072774;28;20080;-75
2021/11/28 02:38:47;;;;;;;23.40;13.77;;;2.70;99.90;;;;;;5072646;28;20542;-74
2021/11/28 02:41:14;;;;;;;18.07;14.10;;;2.60;99.90;;;;;;5072513;28;20133;-74
2021/11/28 02:43:43;;;;;;;18.40;11.83;;;2.60;99.90;;;;;;5072073;28;20095;-75
2021/11/28 02:46:14;;;;;;;29.20;14.97;;;2.70;99.90;;;;;;5072372;28;20079;-77
2021/11/28 02:48:41;;;;;;;15.97;10.27;;;2.70;99.90;;;;;;5072751;28;20049;-75
2021/11/28 02:51:08;;;;;;;19.93;13.13;;;2.70;99.90;;;;;;5072398;28;20145;-74
2021/11/28 02:53:35;;;;;;;18.07;12.27;;;2.80;99.90;;;;;;5071777;28;20748;-74
2021/11/28 02:56:05;;;;;;;23.00;13.53;;;2.80;99.90;;;;;;5072337;28;20420;-74
2021/11/28 02:58:34;;;;;;;24.70;14.20;;;2.80;99.90;;;;;;5070818;28;20044;-75
2021/11/28 03:01:08;;;;;;;17.67;12.67;;;2.80;99.90;;;;;;5072305;28;20056;-75
2021/11/28 03:03:35;;;;;;;20.77;13.20;;;2.70;99.90;;;;;;5071821;28;20110;-73
2021/11/28 03:06:02;;;;;;;19.57;12.63;;;2.80;99.90;;;;;;5071705;28;20041;-73
2021/11/28 03:08:29;;;;;;;13.87;11.50;;;2.80;99.90;;;;;;5071981;28;20471;-75
2021/11/28 03:10:57;;;;;;;21.90;12.30;;;2.80;99.90;;;;;;5071813;28;20048;-74
2021/11/28 03:13:28;;;;;;;19.37;13.33;;;2.80;99.90;;;;;;5071523;28;20087;-74
2021/11/28 03:15:56;;;;;;;17.10;11.07;;;2.80;99.90;;;;;;5071954;28;20512;-76
2021/11/28 03:18:26;;;;;;;20.47;11.50;;;2.70;99.90;;;;;;5071932;28;20489;-78
2021/11/28 03:20:54;;;;;;;15.63;11.17;;;2.70;99.90;;;;;;5071912;28;20113;-76
2021/11/28 03:23:23;;;;;;;18.87;11.67;;;2.80;99.90;;;;;;5071419;28;20393;-75
2021/11/28 03:25:50;;;;;;;19.53;12.23;;;2.80;99.90;;;;;;5071777;28;20151;-77
2021/11/28 03:28:19;;;;;;;18.83;13.20;;;2.80;99.90;;;;;;5072545;28;20044;-76
2021/11/28 03:30:49;;;;;;;17.47;11.17;;;2.80;99.90;;;;;;5073734;28;20090;-74
2021/11/28 03:33:16;;;;;;;18.37;12.70;;;2.80;99.90;;;;;;5071586;28;20113;-73
2021/11/28 03:35:43;;;;;;;17.07;12.37;;;2.80;99.90;;;;;;5071789;28;20074;-73
2021/11/28 03:38:10;;;;;;;17.83;11.07;;;2.80;99.90;;;;;;5071579;28;20567;-73
2021/11/28 03:40:39;;;;;;;17.63;11.90;;;2.80;99.90;;;;;;5071486;28;20460;-73
2021/11/28 03:43:07;;;;;;;20.13;11.57;;;2.90;99.90;;;;;;5071550;28;20126;-78
2021/11/28 03:45:34;;;;;;;16.57;11.27;;;2.90;99.90;;;;;;5071705;28;20040;-76
2021/11/28 03:48:03;;;;;;;18.60;12.43;;;2.80;99.90;;;;;;5071670;28;20052;-74
2021/11/28 03:50:30;;;;;;;17.30;12.23;;;2.80;99.90;;;;;;5071460;28;20458;-77
2021/11/28 03:52:57;;;;;;;15.93;12.23;;;2.80;99.90;;;;;;5071433;28;20135;-75
2021/11/28 03:55:24;;;;;;;19.63;11.03;;;2.80;99.90;;;;;;5071521;28;20040;-75
2021/11/28 03:57:52;;;;;;;17.47;12.97;;;2.70;99.90;;;;;;5071663;28;20102;-75
2021/11/28 04:00:19;;;;;;;14.63;10.23;;;2.80;99.90;;;;;;5071394;28;20554;-74
2021/11/28 04:02:46;;;;;;;18.93;12.47;;;2.70;99.90;;;;;;5071494;28;20044;-74
2021/11/28 04:05:14;;;;;;;17.43;12.00;;;2.70;99.90;;;;;;5070879;28;20040;-73
2021/11/28 04:07:41;;;;;;;19.70;11.77;;;2.70;99.90;;;;;;5071630;28;20473;-74
2021/11/28 04:10:09;;;;;;;17.33;11.70;;;2.70;99.90;;;;;;5071521;28;20087;-75
2021/11/28 04:12:37;;;;;;;21.27;12.53;;;2.70;99.90;;;;;;5072065;28;20413;-75
2021/11/28 04:15:04;;;;;;;18.30;10.37;;;2.70;99.90;;;;;;5071046;28;20127;-75
2021/11/28 04:17:31;;;;;;;16.03;10.70;;;2.70;99.90;;;;;;5071161;28;20045;-76
2021/11/28 04:19:59;;;;;;;15.13;9.87;;;2.60;99.90;;;;;;5074426;28;20090;-77
2021/11/28 04:22:27;;;;;;;17.33;11.60;;;2.60;99.90;;;;;;5075493;28;20098;-75
2021/11/28 04:24:55;;;;;;;18.93;10.73;;;2.50;99.90;;;;;;5075238;28;20048;-75
2021/11/28 04:27:22;;;;;;;17.60;9.27;;;2.50;99.90;;;;;;5075474;28;20501;-76
2021/11/28 04:29:49;;;;;;;17.47;10.13;;;2.40;99.90;;;;;;5075129;28;20459;-76
2021/11/28 04:32:17;;;;;;;16.20;10.40;;;2.40;99.90;;;;;;5074962;28;20141;-73
2021/11/28 04:34:44;;;;;;;15.10;9.53;;;2.30;99.90;;;;;;5074609;28;20139;-73
2021/11/28 04:37:12;;;;;;;16.30;11.33;;;2.30;99.90;;;;;;5075101;28;20045;-73
2021/11/28 04:39:41;;;;;;;222.87;111.20;;;2.30;99.90;;;;;;5074749;28;20505;-75
2021/11/28 04:42:08;;;;;;;22.73;15.97;;;2.30;99.90;;;;;;5074976;28;20076;-76
2021/11/28 04:44:35;;;;;;;18.03;11.63;;;2.40;99.90;;;;;;5074387;28;20504;-78
2021/11/28 04:47:02;;;;;;;14.33;11.20;;;2.20;99.90;;;;;;5074831;28;20082;-75
2021/11/28 04:49:29;;;;;;;35.23;21.20;;;2.20;99.90;;;;;;5074682;28;20128;-75
2021/11/28 04:51:56;;;;;;;18.13;10.90;;;2.10;99.90;;;;;;5074879;28;20064;-76
2021/11/28 04:54:23;;;;;;;16.33;9.97;;;2.00;99.90;;;;;;5074484;28;20045;-76
2021/11/28 04:56:51;;;;;;;13.40;9.40;;;2.00;99.90;;;;;;5074847;28;20044;-74
2021/11/28 04:59:19;;;;;;;17.63;10.63;;;1.80;99.90;;;;;;5074490;28;20416;-75
2021/11/28 05:01:46;;;;;;;15.33;11.27;;;1.80;99.90;;;;;;5074171;28;20140;-73
2021/11/28 05:04:13;;;;;;;20.50;10.73;;;1.80;99.90;;;;;;5074166;28;20084;-73
2021/11/28 05:06:40;;;;;;;17.70;9.77;;;1.70;99.90;;;;;;5074600;28;20040;-74
2021/11/28 05:09:07;;;;;;;14.70;11.37;;;1.80;99.90;;;;;;5074736;28;20045;-73
2021/11/28 05:11:34;;;;;;;13.93;10.70;;;1.70;99.90;;;;;;5074193;28;20045;-73
2021/11/28 05:14:03;;;;;;;13.77;10.43;;;1.70;99.90;;;;;;5073732;28;20068;-74
2021/11/28 05:16:30;;;;;;;15.33;11.43;;;1.70;99.90;;;;;;5074405;28;20135;-74
2021/11/28 05:18:57;;;;;;;16.57;9.47;;;1.70;99.90;;;;;;5074150;28;20079;-75
2021/11/28 05:21:24;;;;;;;17.00;11.27;;;1.60;99.90;;;;;;5074261;28;20068;-74
2021/11/28 05:23:51;;;;;;;19.90;10.27;;;1.60;99.90;;;;;;5074162;28;20071;-74
2021/11/28 05:26:18;;;;;;;15.27;10.10;;;1.60;99.90;;;;;;5074207;28;20127;-75
2021/11/28 05:28:45;;;;;;;11.97;8.87;;;1.50;99.90;;;;;;5074052;28;20048;-76
2021/11/28 05:31:17;;;;;;;12.43;9.23;;;1.50;99.90;;;;;;5073770;28;20045;-74
2021/11/28 05:33:45;;;;;;;;;;;1.40;99.90;;;;;;5074255;28;20520;-75
2021/11/28 05:36:12;;;;;;;17.43;10.97;;;1.30;99.90;;;;;;5074277;28;19921;-76
2021/11/28 05:38:39;;;;;;;17.13;11.67;;;1.30;99.90;;;;;;5074395;28;20052;-73
2021/11/28 05:41:07;;;;;;;14.30;10.40;;;1.20;99.90;;;;;;5073649;28;20102;-74
2021/11/28 05:43:36;;;;;;;18.30;11.20;;;1.30;99.90;;;;;;5073324;28;20570;-72
2021/11/28 05:46:03;;;;;;;15.27;9.83;;;1.30;99.90;;;;;;5073823;28;20137;-74
2021/11/28 05:48:32;;;;;;;15.57;9.30;;;1.20;99.90;;;;;;5073846;28;20238;-73
2021/11/28 05:50:59;;;;;;;19.57;10.53;;;1.10;99.90;;;;;;5073680;28;20044;-74
2021/11/28 05:53:26;;;;;;;17.87;9.73;;;1.00;99.90;;;;;;5073415;28;20110;-75
2021/11/28 05:55:53;;;;;;;15.93;9.37;;;1.00;99.90;;;;;;5073463;28;20044;-78
2021/11/28 05:58:21;;;;;;;15.70;10.10;;;0.90;99.90;;;;;;5074140;28;20045;-76
2021/11/28 06:00:48;;;;;;;16.10;10.37;;;0.90;99.90;;;;;;5073944;28;20041;-76
2021/11/28 06:03:15;;;;;;;14.03;9.87;;;0.80;99.90;;;;;;5073211;28;20098;-75
2021/11/28 06:05:46;;;;;;;14.50;9.40;;;0.80;99.90;;;;;;5075087;28;20132;-77
2021/11/28 06:08:13;;;;;;;11.75;8.65;;;0.80;99.90;;;;;;5073302;28;20412;-74
2021/11/28 06:10:40;;;;;;;13.13;10.50;;;0.70;99.90;;;;;;5073465;28;20098;-73
2021/11/28 06:13:07;;;;;;;10.90;9.47;;;0.60;99.90;;;;;;5072684;28;20081;-73
2021/11/28 06:15:34;;;;;;;18.77;10.93;;;0.60;99.90;;;;;;5072957;28;20072;-72
2021/11/28 06:18:01;;;;;;;17.43;9.07;;;0.60;99.90;;;;;;5073184;28;20499;-74
2021/11/28 06:20:28;;;;;;;15.33;9.63;;;0.60;99.90;;;;;;5073117;28;20048;-73
2021/11/28 06:22:57;;;;;;;13.47;9.53;;;0.50;99.90;;;;;;5073106;28;20079;-77
2021/11/28 06:25:24;;;;;;;14.70;8.90;;;0.50;99.90;;;;;;5072836;28;20067;-75
2021/11/28 06:27:51;;;;;;;15.47;8.00;;;0.40;99.90;;;;;;5073172;28;20045;-74
2021/11/28 06:30:18;;;;;;;15.10;9.27;;;0.30;99.90;;;;;;5072800;28;20386;-77
2021/11/28 06:32:45;;;;;;;16.33;9.27;;;0.20;99.90;;;;;;5072848;28;20139;-76
2021/11/28 06:35:12;;;;;;;10.60;9.33;;;0.20;99.90;;;;;;5072786;28;20105;-74
2021/11/28 06:37:39;;;;;;;16.93;11.27;;;0.20;99.90;;;;;;5072982;28;20580;-75
2021/11/28 06:40:08;;;;;;;17.13;11.23;;;0.30;99.90;;;;;;5072844;28;20413;-74
2021/11/28 06:42:35;;;;;;;16.87;10.03;;;0.40;99.90;;;;;;5072398;28;20084;-76
2021/11/28 06:45:02;;;;;;;13.63;8.90;;;0.40;99.90;;;;;;5072536;28;20136;-76
2021/11/28 06:47:29;;;;;;;15.97;9.63;;;0.40;99.90;;;;;;5073299;28;20373;-73
2021/11/28 06:49:56;;;;;;;18.90;11.97;;;0.30;99.90;;;;;;5072544;28;20074;-73
2021/11/28 06:52:23;;;;;;;14.77;9.40;;;0.30;99.90;;;;;;5072253;28;20049;-74
2021/11/28 06:54:50;;;;;;;14.43;10.57;;;0.30;99.90;;;;;;5072093;28;20083;-74
2021/11/28 06:57:19;;;;;;;17.90;9.53;;;0.30;99.90;;;;;;5072310;28;20040;-74
2021/11/28 06:59:46;;;;;;;15.10;11.47;;;0.20;99.90;;;;;;5072210;28;20098;-73
2021/11/28 07:02:13;;;;;;;15.17;9.57;;;0.20;99.90;;;;;;5072052;28;20075;-74
2021/11/28 07:04:42;;;;;;;16.50;11.57;;;0.20;99.90;;;;;;5071878;28;20047;-76
2021/11/28 07:07:09;;;;;;;16.60;9.97;;;0.20;99.90;;;;;;5073280;28;20068;-79
2021/11/28 07:09:36;;;;;;;19.90;11.30;;;0.20;99.90;;;;;;5074175;28;20048;-75
2021/11/28 07:12:03;;;;;;;14.97;11.07;;;0.10;99.90;;;;;;5073830;28;20044;-75
2021/11/28 07:14:32;;;;;;;15.77;10.47;;;0.20;99.90;;;;;;5074736;28;20136;-75
2021/11/28 07:16:59;;;;;;;19.87;12.37;;;0.20;99.90;;;;;;5073332;28;20131;-76
2021/11/28 07:19:26;;;;;;;17.47;10.00;;;0.10;99.90;;;;;;5073098;28;20044;-77
2021/11/28 07:21:54;;;;;;;16.00;9.77;;;0.00;99.90;;;;;;5072600;28;20090;-76
2021/11/28 07:24:21;;;;;;;16.67;9.40;;;0.00;99.90;;;;;;5071846;28;20276;-75
2021/11/28 07:26:51;;;;;;;13.90;9.50;;;0.00;99.90;;;;;;5073064;28;20055;-78
2021/11/28 07:29:18;;;;;;;19.47;10.87;;;0.00;99.90;;;;;;5072635;28;20048;-76
2021/11/28 07:31:47;;;;;;;13.30;10.00;;;0.10;99.90;;;;;;5073107;28;20136;-73
2021/11/28 07:34:13;;;;;;;14.43;10.00;;;0.10;99.90;;;;;;5071316;28;20139;-74
2021/11/28 07:36:41;;;;;;;18.07;10.27;;;0.10;99.90;;;;;;5071690;28;20561;-73
2021/11/28 07:39:08;;;;;;;22.50;10.53;;;0.10;99.90;;;;;;5071497;28;20041;-73
2021/11/28 07:41:36;;;;;;;13.27;10.60;;;0.10;99.90;;;;;;5071728;28;20373;-73
2021/11/28 07:44:03;;;;;;;12.73;9.80;;;0.30;99.90;;;;;;5071089;28;20076;-73
2021/11/28 07:46:30;;;;;;;21.93;11.93;;;0.40;99.90;;;;;;5073014;28;20044;-73
2021/11/28 07:48:58;;;;;;;16.80;10.53;;;0.50;99.90;;;;;;5071860;28;20072;-75
2021/11/28 07:51:26;;;;;;;22.20;12.57;;;0.70;99.90;;;;;;5071401;28;20098;-73
2021/11/28 07:53:52;;;;;;;25.27;13.07;;;1.00;99.90;;;;;;5070769;28;20184;-72
2021/11/28 07:56:22;;;;;;;27.47;12.60;;;1.40;99.90;;;;;;5071421;28;20049;-73
2021/11/28 07:58:48;;;;;;;19.73;12.73;;;1.80;99.90;;;;;;5071501;28;20051;-73
2021/11/28 08:01:15;;;;;;;26.07;13.43;;;2.20;99.90;;;;;;5071646;28;20079;-73
2021/11/28 08:03:42;;;;;;;18.83;10.80;;;2.60;99.90;;;;;;5071028;28;20052;-74
2021/11/28 08:06:13;;;;;;;21.87;13.07;;;3.10;99.90;;;;;;5071550;28;20463;-72
2021/11/28 08:08:40;;;;;;;18.37;10.40;;;3.60;99.90;;;;;;5071368;28;20412;-73
2021/11/28 08:11:07;;;;;;;13.00;10.00;;;3.90;99.90;;;;;;5071131;28;20068;-74
2021/11/28 08:13:34;;;;;;;11.03;8.17;;;4.10;99.90;;;;;;5071056;28;20139;-74
2021/11/28 08:16:03;;;;;;;11.33;8.53;;;4.30;99.90;;;;;;5071631;28;20135;-74
2021/11/28 08:18:30;;;;;;;10.90;7.47;;;4.50;99.90;;;;;;5071134;28;20420;-71
2021/11/28 08:20:58;;;;;;;14.20;7.30;;;4.70;99.90;;;;;;5071313;28;20094;-73
2021/11/28 08:23:26;;;;;;;10.17;7.80;;;5.10;99.90;;;;;;5070724;28;20049;-73
2021/11/28 08:25:53;;;;;;;11.20;6.87;;;5.50;99.90;;;;;;5071194;28;20094;-73
2021/11/28 08:28:20;;;;;;;10.30;6.93;;;5.60;99.90;;;;;;5071341;28;20062;-75
2021/11/28 08:30:48;;;;;;;9.90;6.47;;;5.90;99.90;;;;;;5071342;28;20385;-79
2021/11/28 08:33:14;;;;;;;8.93;6.90;;;6.10;99.90;;;;;;5070846;28;20119;-75
2021/11/28 08:35:42;;;;;;;9.10;5.47;;;6.00;99.90;;;;;;5072831;28;20471;-76
2021/11/28 08:38:10;;;;;;;12.20;6.27;;;6.20;99.90;;;;;;5071529;28;20466;-74
2021/11/28 08:40:38;;;;;;;13.37;7.03;;;6.40;99.90;;;;;;5071391;28;20056;-78
2021/11/28 08:43:06;;;;;;;10.00;6.22;;;6.70;99.90;;;;;;5071476;28;20394;-76
2021/11/28 08:45:33;;;;;;;6.28;5.63;;;7.50;99.90;;;;;;5071108;28;20459;-73
2021/11/28 08:48:01;;;;;;;10.65;6.85;;;7.70;99.90;;;;;;5071143;28;20131;-70
2021/11/28 08:50:28;;;;;;;11.07;5.57;;;7.80;99.90;;;;;;5070867;28;20072;-71
2021/11/28 08:52:55;;;;;;;12.60;6.45;;;7.60;99.90;;;;;;5070721;28;20072;-71
2021/11/28 08:55:23;;;;;;;8.50;7.00;;;7.60;99.90;;;;;;5070349;28;20102;-70
2021/11/28 08:57:51;;;;;;;7.22;6.47;;;7.80;99.90;;;;;;5070790;28;20049;-68
2021/11/28 09:00:19;;;;;;;7.45;5.78;;;7.60;99.90;;;;;;5070772;28;20048;-69
2021/11/28 09:02:49;;;;;;;8.45;5.60;;;7.60;99.90;;;;;;5070948;28;20053;-69
2021/11/28 09:05:18;;;;;;;9.82;6.18;;;8.40;99.90;;;;;;5072251;28;20451;-70
2021/11/28 09:07:45;;;;;;;8.65;5.97;;;8.10;99.90;;;;;;5074175;28;20095;-70
2021/11/28 09:10:13;;;;;;;11.98;6.65;;;8.70;99.90;;;;;;5074501;28;20114;-68
2021/11/28 09:12:40;;;;;;;13.65;8.80;;;9.40;99.90;;;;;;5074175;28;20055;-71
2021/11/28 09:15:09;;;;;;;10.43;7.22;;;10.30;99.90;;;;;;5073948;28;20501;-70
2021/11/28 09:17:37;;;;;;;11.10;6.72;;;9.80;99.90;;;;;;5074199;28;20045;-71
2021/11/28 09:20:06;;;;;;;9.95;5.68;;;9.40;99.90;;;;;;5073982;28;20049;-70
2021/11/28 09:25:18;;;;;;;8.57;6.88;;;10.60;99.90;;;;;;5073485;28;20052;-71
2021/11/28 09:27:47;;;;;;;8.20;6.18;;;10.80;99.90;;;;;;5074116;28;20044;-71
2021/11/28 09:30:17;;;;;;;7.47;5.85;;;10.80;99.90;;;;;;5073843;28;20044;-73
2021/11/28 09:32:44;;;;;;;9.70;6.28;;;10.90;99.90;;;;;;5074075;28;20072;-71
2021/11/28 09:35:12;;;;;;;8.77;5.93;;;11.50;99.90;;;;;;5073564;28;20048;-72
2021/11/28 09:37:39;;;;;;;6.15;5.53;;;12.10;99.90;;;;;;5073786;28;20106;-73
2021/11/28 09:40:07;;;;;;;10.95;7.15;;;11.40;99.90;;;;;;5073507;28;20083;-73
2021/11/28 09:42:38;;;;;;;7.93;5.55;;;11.60;99.90;;;;;;5073380;28;20497;-72
2021/11/28 09:45:07;;;;;;;9.32;6.03;;;11.80;99.90;;;;;;5072955;28;20564;-73
2021/11/28 09:47:38;;;;;;;8.32;6.10;;;12.10;99.90;;;;;;5073435;28;20078;-71
2021/11/28 09:50:07;;;;;;;8.13;6.63;;;12.00;98.80;;;;;;5073483;28;20497;-71
2021/11/28 09:52:34;;;;;;;9.25;6.57;;;12.50;98.00;;;;;;5073868;28;20106;-76
2021/11/28 09:55:04;;;;;;;7.32;6.15;;;12.40;98.70;;;;;;5073158;28;20106;-71
2021/11/28 09:57:32;;;;;;;9.50;6.20;;;13.20;96.20;;;;;;5073500;28;20048;-71
2021/11/28 09:59:59;;;;;;;9.05;6.38;;;12.00;96.40;;;;;;5073492;28;20102;-72
2021/11/28 10:02:28;;;;;;;7.88;6.57;;;12.40;97.40;;;;;;5073343;28;20052;-71
2021/11/28 10:04:58;;;;;;;12.60;6.85;;;12.50;97.90;;;;;;5073136;28;20040;-72
2021/11/28 10:07:25;;;;;;;9.50;6.95;;;12.10;97.80;;;;;;5073282;28;20048;-73
2021/11/28 10:09:52;;;;;;;17.10;9.90;;;12.10;97.80;;;;;;5073020;28;20048;-70
2021/11/28 10:12:22;;;;;;;7.68;6.57;;;12.20;98.10;;;;;;5073445;28;20443;-72
2021/11/28 10:14:52;;;;;;;10.13;7.72;;;11.20;99.40;;;;;;5072776;28;20058;-69
2021/11/28 10:17:23;;;;;;;9.40;7.00;;;9.90;99.90;;;;;;5072385;28;20123;-72
2021/11/28 10:19:50;;;;;;;8.10;7.25;;;9.60;99.90;;;;;;5073224;28;20065;-71
2021/11/28 10:22:19;;;;;;;9.70;6.88;;;9.80;99.90;;;;;;5072966;28;20524;-74
2021/11/28 10:25:04;;;;;;;9.02;6.40;;;10.00;99.90;;;;;;5072491;28;20139;-71
2021/11/28 10:27:40;;;;;;;7.65;5.63;;;9.90;99.90;;;;;;5073125;28;20091;-72
2021/11/28 10:30:10;;;;;;;11.80;6.97;;;10.30;99.90;;;;;;5072801;28;20048;-70
2021/11/28 10:32:42;;;;;;;11.20;6.50;;;10.40;99.90;;;;;;5072784;28;20524;-71
2021/11/28 10:35:11;;;;;;;10.10;6.72;;;10.60;99.90;;;;;;5072333;28;20463;-74
2021/11/28 10:37:43;;;;;;;10.82;6.57;;;11.10;99.90;;;;;;5073232;28;20045;-73
2021/11/28 10:40:12;;;;;;;7.95;5.68;;;11.40;99.90;;;;;;5072984;28;20041;-75
2021/11/28 10:42:40;;;;;;;8.98;6.53;;;10.60;99.90;;;;;;5073073;28;20041;-73
2021/11/28 10:45:10;;;;;;;8.63;6.63;;;9.80;99.90;;;;;;5072090;28;20072;-74
2021/11/28 10:47:40;;;;;;;8.68;6.32;;;9.80;99.90;;;;;;5072687;28;20501;-74
2021/11/28 10:50:22;;;;;;;8.38;6.25;;;9.70;99.90;;;;;;5072676;28;20493;-75
2021/11/28 10:52:52;;;;;;;9.25;6.55;;;9.60;99.90;;;;;;5072974;28;20136;-74
2021/11/28 10:55:27;;;;;;;11.15;6.00;;;9.90;99.90;;;;;;5071405;28;20059;-74
2021/11/28 10:58:07;;;;;;;9.30;6.68;;;10.20;99.90;;;;;;5072875;28;20051;-74
2021/11/28 11:00:34;;;;;;;14.68;10.15;;;11.00;99.90;;;;;;5072626;28;20044;-73
2021/11/28 11:03:13;;;;;;;39.38;18.40;;;11.50;99.90;;;;;;5072151;28;20083;-74
2021/11/28 11:05:40;;;;;;;24.35;13.52;;;11.10;99.90;;;;;;5072428;28;20048;-73
2021/11/28 11:08:09;;;;;;;18.67;10.30;;;10.30;99.90;;;;;;5072217;28;20098;-73
2021/11/28 11:10:36;;;;;;;22.25;14.27;;;10.00;99.90;;;;;;5072495;28;20105;-72
2021/11/28 11:13:05;;;;;;;17.33;10.23;;;9.70;99.90;;;;;;5074515;28;20040;-72
2021/11/28 11:15:38;;;;;;;13.95;9.05;;;10.00;99.90;;;;;;5075604;28;20045;-72
2021/11/28 11:18:06;;;;;;;12.93;8.05;;;9.40;99.90;;;;;;5072099;28;20072;-73
2021/11/28 11:20:36;;;;;;;14.23;9.00;;;9.10;99.90;;;;;;5072004;28;20094;-73
2021/11/28 11:23:03;;;;;;;10.90;7.32;;;9.10;99.90;;;;;;5072348;28;20060;-71
2021/11/28 11:25:37;;;;;;;11.27;8.05;;;8.60;99.90;;;;;;5071525;28;20440;-72
2021/11/28 11:28:12;;;;;;;8.77;7.25;;;8.10;99.90;;;;;;5071619;28;20128;-72
2021/11/28 11:30:39;;;;;;;15.20;7.50;;;8.30;99.90;;;;;;5071901;28;20083;-72
2021/11/28 11:33:08;;;;;;;16.27;7.78;;;7.70;99.90;;;;;;5071385;28;20044;-75
2021/11/28 11:35:40;;;;;;;10.55;6.43;;;8.20;99.90;;;;;;5071538;28;20140;-72
2021/11/28 11:38:10;;;;;;;12.10;8.13;;;8.50;99.90;;;;;;5071940;28;20106;-72
2021/11/28 11:40:39;;;;;;;12.45;9.00;;;8.40;99.90;;;;;;5072174;28;20044;-73
2021/11/28 11:43:07;;;;;;;11.52;7.53;;;8.40;99.90;;;;;;5071571;28;20049;-73
2021/11/28 11:45:37;;;;;;;9.05;7.00;;;8.20;99.90;;;;;;5071750;28;20451;-72
2021/11/28 11:48:05;;;;;;;11.65;8.02;;;7.50;99.90;;;;;;5072089;28;20132;-71
2021/11/28 11:50:35;;;;;;;13.02;8.85;;;7.60;99.90;;;;;;5071945;28;20048;-72
2021/11/28 11:53:02;;;;;;;11.30;8.32;;;7.70;99.90;;;;;;5071525;28;20052;-74
2021/11/28 11:55:31;;;;;;;13.57;8.18;;;7.50;99.90;;;;;;5070867;28;20063;-73
2021/11/28 11:58:16;;;;;;;12.95;7.85;;;7.20;99.90;;;;;;5071683;28;20041;-74
2021/11/28 12:00:46;;;;;;;10.25;6.95;;;6.90;99.90;;;;;;5071665;28;20459;-72
2021/11/28 12:03:18;;;;;;;10.88;7.47;;;6.40;99.90;;;;;;5070897;28;20465;-72
2021/11/28 12:05:47;;;;;;;9.43;6.50;;;6.30;99.90;;;;;;5072013;28;20094;-73
2021/11/28 12:08:25;;;;;;;13.13;9.40;;;6.30;99.90;;;;;;5071476;28;20044;-73
2021/11/28 12:11:04;;;;;;;11.60;6.85;;;6.40;99.90;;;;;;5071241;28;20094;-73
2021/11/28 12:13:54;;;;;;;12.90;7.25;;;6.90;99.90;;;;;;5071120;28;20055;-73
2021/11/28 12:16:26;;;;;;;11.18;7.93;;;7.00;99.90;;;;;;5071268;28;20447;-72
2021/11/28 12:18:54;;;;;;;9.82;6.88;;;6.80;99.90;;;;;;5076843;28;20045;-73
2021/11/28 12:21:22;;;;;;;15.82;12.77;;;7.20;99.90;;;;;;5071037;28;20131;-72
2021/11/28 12:23:56;;;;;;;17.48;9.77;;;7.20;99.90;;;;;;5070930;28;20048;-73
2021/11/28 12:26:36;;;;;;;14.50;8.88;;;6.90;99.90;;;;;;5071384;28;20052;-73
2021/11/28 12:29:24;;;;;;;10.98;9.55;;;6.30;99.90;;;;;;5071094;28;20044;-74
2021/11/28 12:31:54;;;;;;;12.65;8.45;;;6.60;99.90;;;;;;5071419;28;20131;-71
2021/11/28 12:34:22;;;;;;;12.40;8.20;;;7.60;99.90;;;;;;5070719;28;20397;-72
2021/11/28 12:36:51;;;;;;;12.35;7.65;;;8.40;99.90;;;;;;5071126;28;20131;-71
2021/11/28 12:39:39;;;;;;;11.65;8.70;;;9.20;99.90;;;;;;5071801;28;20071;-73
2021/11/28 12:42:08;;;;;;;15.32;7.43;;;9.30;99.90;;;;;;5075495;28;20040;-74
2021/11/28 12:44:39;;;;;;;11.45;8.07;;;8.80;99.90;;;;;;5075242;28;20044;-73
2021/11/28 12:47:23;;;;;;;12.38;8.73;;;8.30;99.90;;;;;;5075120;28;20090;-73
2021/11/28 12:49:52;;;;;;;18.20;11.57;;;7.70;99.90;;;;;;5074775;28;20048;-72